Terminal Aerodrome Forecast
Issued by NWS Cleveland, OH

Home | Current Version | Previous Version | Graphics & Text | Print | Product List | Glossary On
Versions: 1 2 3 4 5 6 7 8 9 10 11 12 13 14 15 16 17 18 19 20 21 22 23 24 25
757
FTUS41 KCLE 200236 AAC
TAFCLE
TAF AMD
KCLE 200236Z 2003/2106 10003KT P6SM SCT040 OVC090
      TEMPO 2003/2006 6SM BR BKN040
     FM200600 16004KT 5SM BR OVC060
      TEMPO 2009/2013 3SM BR BKN025
     FM201400 33005KT P6SM BKN050
     FM202300 04004KT P6SM SCT035 BKN080
     FM210200 00000KT P6SM SCT100=

USA.gov is the U.S. government's official web portal to all federal, state and local government web resources and services.